Date,TemperatureHighF,TemperatureAvgF,TemperatureLowF,DewpointHighF,DewpointAvgF,DewpointLowF,HumidityHigh,HumidityAvg,HumidityLow,PressureMaxIn,PressureMinIn,WindSpeedMaxMPH,WindSpeedAvgMPH,GustSpeedMaxMPH,PrecipitationSumIn
2013-2-1,50.3,36.0,23.3,22.2,18.3,13.6,69,51,28,30.23,30.00,18,3,26,0.00
2013-2-2,59.0,38.1,23.4,21.7,16.2,12.5,74,46,16,30.39,30.14,12,2,17,0.00
2013-2-3,53.8,38.6,25.5,21.8,15.0,7.3,64,41,17,30.22,29.86,11,1,16,0.00
2013-2-4,54.1,38.7,24.1,16.2,12.3,9.0,55,36,18,30.00,29.82,12,3,21,0.00
2013-2-5,60.9,42.2,26.4,21.0,17.5,14.3,62,40,20,30.07,29.72,10,2,17,0.00
2013-2-6,56.2,41.3,30.0,32.3,23.8,17.3,89,53,28,30.02,29.69,12,2,20,0.10
2013-2-7,48.1,36.2,26.0,30.6,24.1,13.1,90,66,26,30.24,30.00,12,2,18,0.01
2013-2-8,51.2,38.1,27.5,23.0,18.7,13.9,66,47,30,30.01,29.61,11,3,17,0.00
2013-2-9,35.7,29.9,23.8,26.9,20.5,13.9,83,68,53,29.77,29.57,14,2,18,0.00
2013-2-10,35.4,27.0,21.0,19.7,14.4,9.2,83,61,35,30.17,29.64,11,2,18,0.00
2013-2-11,29.8,22.7,15.3,14.8,12.9,9.7,80,66,50,30.25,30.09,8,1,10,0.00
2013-2-12,41.7,28.2,16.3,13.5,5.7,-2.3,77,44,16,30.24,30.07,8,1,12,0.00
2013-2-13,46.1,34.0,20.5,16.1,11.9,6.2,57,41,27,30.11,29.95,18,4,28,0.00
2013-2-14,35.4,26.7,22.2,22.5,17.7,12.6,92,70,48,30.42,30.00,14,2,23,0.00
2013-2-15,38.6,26.1,16.3,18.3,14.1,9.7,79,62,35,30.50,30.30,14,2,21,0.02
2013-2-16,56.3,39.9,21.8,18.9,15.0,12.0,71,40,21,30.31,29.90,15,4,24,0.00
2013-2-17,62.1,42.7,27.6,19.0,9.8,1.0,62,31,9,29.93,29.42,16,3,24,0.00
2013-2-18,40.5,31.7,23.9,20.1,11.3,1.9,74,46,21,30.17,29.69,18,3,26,0.00
2013-2-19,40.7,29.2,17.0,15.7,10.3,4.6,64,46,34,30.20,29.80,9,1,15,0.00
2013-2-20,35.0,25.9,18.9,26.3,17.7,12.6,90,72,47,29.86,29.68,8,2,12,0.00
2013-2-21,27.6,19.9,14.0,18.1,15.0,11.1,92,81,65,30.10,29.80,7,2,12,0.14
2013-2-22,34.9,23.6,11.2,18.5,14.2,7.0,92,69,47,30.12,29.96,11,3,16,0.04
2013-2-23,47.2,31.3,15.8,26.7,16.9,6.1,85,58,30,29.96,29.60,10,3,15,0.01
2013-2-24,28.5,25.3,20.3,25.3,23.0,18.3,92,91,85,30.26,29.67,15,4,23,0.00
2013-2-25,38.2,23.7,10.7,27.5,15.4,7.5,92,73,34,30.28,29.97,11,2,15,0.21
2013-2-26,32.5,24.6,17.5,25.0,18.2,8.4,83,76,67,30.24,29.87,15,3,24,0.03
2013-2-27,36.4,26.8,15.3,17.2,11.9,6.0,72,54,33,30.42,30.23,11,2,14,0.00
2013-2-28,42.7,29.5,11.4,15.3,9.8,2.9,70,46,26,30.44,30.18,17,4,27,0.00